createdAt,value
2017-03-26T00:00:03.539Z,4.73
2017-03-26T00:00:07.743Z,4.73
2017-03-26T00:00:12.189Z,4.73
2017-03-26T00:00:16.622Z,4.73
2017-03-26T00:00:20.932Z,4.74
2017-03-26T00:00:25.369Z,4.73
2017-03-26T00:00:29.806Z,4.73
2017-03-26T00:00:34.235Z,4.72
2017-03-26T00:00:38.669Z,4.73
2017-03-26T00:00:43.099Z,4.73
2017-03-26T00:00:47.584Z,4.72
2017-03-26T00:00:52.024Z,4.73
2017-03-26T00:00:56.446Z,4.73
2017-03-26T00:01:00.876Z,4.73
2017-03-26T00:01:05.194Z,4.72
2017-03-26T00:01:09.618Z,4.73
2017-03-26T00:01:14.048Z,4.72
2017-03-26T00:01:18.488Z,4.73
2017-03-26T00:01:22.925Z,4.73
2017-03-26T00:01:27.246Z,4.72
2017-03-26T00:01:31.681Z,4.73
2017-03-26T00:01:36.112Z,4.72
2017-03-26T00:01:40.545Z,4.73
2017-03-26T00:01:44.864Z,4.73
2017-03-26T00:01:49.304Z,4.72
2017-03-26T00:01:53.643Z,4.73
2017-03-26T00:01:57.844Z,4.71
2017-03-26T00:02:02.576Z,4.72
2017-03-26T00:02:06.779Z,4.72
2017-03-26T00:02:11.209Z,4.73
2017-03-26T00:02:15.521Z,4.73
2017-03-26T00:02:19.833Z,4.72
2017-03-26T00:02:24.264Z,4.73
2017-03-26T00:02:28.658Z,4.72
2017-03-26T00:02:33.093Z,4.72
2017-03-26T00:02:37.411Z,4.72
2017-03-26T00:02:41.850Z,4.73
2017-03-26T00:02:46.180Z,4.73
2017-03-26T00:02:50.494Z,4.72
2017-03-26T00:02:54.809Z,4.73
2017-03-26T00:02:59.258Z,4.73
2017-03-26T00:03:03.698Z,4.73
2017-03-26T00:03:08.013Z,4.72
2017-03-26T00:03:12.456Z,4.73
2017-03-26T00:03:16.888Z,4.72
2017-03-26T00:03:21.207Z,4.73
2017-03-26T00:03:25.528Z,4.73
2017-03-26T00:03:29.844Z,4.73
2017-03-26T00:03:34.277Z,4.73
2017-03-26T00:03:38.598Z,4.73
2017-03-26T00:03:43.097Z,4.73
2017-03-26T00:03:47.530Z,4.74
2017-03-26T00:03:51.966Z,4.73
2017-03-26T00:03:56.410Z,4.72
2017-03-26T00:04:00.894Z,4.73
2017-03-26T00:04:05.328Z,4.73
2017-03-26T00:04:09.638Z,4.73
2017-03-26T00:04:14.082Z,4.73
2017-03-26T00:04:18.534Z,4.73
2017-03-26T00:04:22.735Z,4.73
2017-03-26T00:04:27.050Z,4.73
2017-03-26T00:04:31.264Z,4.73
2017-03-26T00:04:35.582Z,4.73
2017-03-26T00:04:39.960Z,4.74
2017-03-26T00:04:44.278Z,4.73
2017-03-26T00:04:48.593Z,4.73
2017-03-26T00:04:53.040Z,4.73
2017-03-26T00:04:57.493Z,4.73
2017-03-26T00:05:02.232Z,4.73
2017-03-26T00:05:06.659Z,4.73
2017-03-26T00:05:11.094Z,4.73
2017-03-26T00:05:15.433Z,4.73
2017-03-26T00:05:19.749Z,4.73
2017-03-26T00:05:24.182Z,4.72
2017-03-26T00:05:28.665Z,4.73
2017-03-26T00:05:32.754Z,4.73
2017-03-26T00:05:37.207Z,4.73
2017-03-26T00:05:41.543Z,4.73
2017-03-26T00:05:45.974Z,4.72
2017-03-26T00:05:50.072Z,4.72
2017-03-26T00:05:54.386Z,4.72
2017-03-26T00:05:58.481Z,4.73
2017-03-26T00:06:02.911Z,4.73
2017-03-26T00:06:07.120Z,4.72
2017-03-26T00:06:11.553Z,4.73
2017-03-26T00:06:15.758Z,4.72
2017-03-26T00:06:20.099Z,4.72
2017-03-26T00:06:24.526Z,4.72
2017-03-26T00:06:28.852Z,4.72
2017-03-26T00:06:33.290Z,4.72
2017-03-26T00:06:37.746Z,4.72
2017-03-26T00:06:42.170Z,4.73
2017-03-26T00:06:46.498Z,4.72
2017-03-26T00:06:50.824Z,4.73
2017-03-26T00:06:55.145Z,4.73
2017-03-26T00:06:59.465Z,4.72
2017-03-26T00:07:03.832Z,4.73
2017-03-26T00:07:08.275Z,4.73
2017-03-26T00:07:12.476Z,4.73
2017-03-26T00:07:16.803Z,4.72
2017-03-26T00:07:21.250Z,4.72
2017-03-26T00:07:25.701Z,4.72
2017-03-26T00:07:29.678Z,4.72
2017-03-26T00:07:34.116Z,4.73
2017-03-26T00:07:38.451Z,4.73
2017-03-26T00:07:42.937Z,4.73
2017-03-26T00:07:47.153Z,4.73
2017-03-26T00:07:51.372Z,4.72
2017-03-26T00:07:55.617Z,4.72
2017-03-26T00:07:59.833Z,4.73
2017-03-26T00:08:04.571Z,4.72
2017-03-26T00:08:08.791Z,4.71
2017-03-26T00:08:13.129Z,4.72
2017-03-26T00:08:17.614Z,4.73
2017-03-26T00:08:21.936Z,4.72
2017-03-26T00:08:26.270Z,4.72
2017-03-26T00:08:30.597Z,4.72
2017-03-26T00:08:34.985Z,4.72
2017-03-26T00:08:39.427Z,4.73
2017-03-26T00:08:43.775Z,4.72
2017-03-26T00:08:48.213Z,4.72
2017-03-26T00:08:52.556Z,4.72
2017-03-26T00:08:57.008Z,4.72
2017-03-26T00:09:01.801Z,4.7
2017-03-26T00:09:06.128Z,4.71
2017-03-26T00:09:10.506Z,4.72
2017-03-26T00:09:14.730Z,4.72
2017-03-26T00:09:19.161Z,4.72
2017-03-26T00:09:23.499Z,4.7
2017-03-26T00:09:27.941Z,4.72
2017-03-26T00:09:32.384Z,4.71
2017-03-26T00:09:36.708Z,4.71
2017-03-26T00:09:41.052Z,4.71
2017-03-26T00:09:45.489Z,4.72
2017-03-26T00:09:49.711Z,4.72
2017-03-26T00:09:54.036Z,4.72
2017-03-26T00:09:58.253Z,4.71
2017-03-26T00:10:02.693Z,4.71
2017-03-26T00:10:07.019Z,4.71
2017-03-26T00:10:11.229Z,4.7
2017-03-26T00:10:15.668Z,4.7
2017-03-26T00:10:20.103Z,4.71
2017-03-26T00:10:24.532Z,4.71
2017-03-26T00:10:28.863Z,4.7
2017-03-26T00:10:32.951Z,4.71
2017-03-26T00:10:37.387Z,4.71
2017-03-26T00:10:41.710Z,4.72
2017-03-26T00:10:46.043Z,4.71
2017-03-26T00:10:50.486Z,4.71
2017-03-26T00:10:54.687Z,4.71
2017-03-26T00:10:59.114Z,4.71
2017-03-26T00:11:03.606Z,4.71
2017-03-26T00:11:08.065Z,4.7
2017-03-26T00:11:12.292Z,4.7
2017-03-26T00:11:16.662Z,4.7
2017-03-26T00:11:20.874Z,4.7
2017-03-26T00:11:25.078Z,4.71
2017-03-26T00:11:29.291Z,4.71
2017-03-26T00:11:33.599Z,4.7
2017-03-26T00:11:38.044Z,4.7
2017-03-26T00:11:42.380Z,4.71
2017-03-26T00:11:46.818Z,4.71
2017-03-26T00:11:51.025Z,4.7
2017-03-26T00:11:55.460Z,4.7
2017-03-26T00:11:59.895Z,4.7
2017-03-26T00:12:04.332Z,4.69
2017-03-26T00:12:08.643Z,4.7
2017-03-26T00:12:12.957Z,4.69
2017-03-26T00:12:17.391Z,4.69
2017-03-26T00:12:21.591Z,4.69
2017-03-26T00:12:26.026Z,4.7
2017-03-26T00:12:30.459Z,4.69
2017-03-26T00:12:34.780Z,4.7
2017-03-26T00:12:39.215Z,4.68
2017-03-26T00:12:43.305Z,4.69
2017-03-26T00:12:47.743Z,4.68
2017-03-26T00:12:52.181Z,4.68
2017-03-26T00:12:56.623Z,4.69
2017-03-26T00:13:01.066Z,4.68
2017-03-26T00:13:05.512Z,4.68
2017-03-26T00:13:09.955Z,4.68
2017-03-26T00:13:14.386Z,4.68
2017-03-26T00:13:18.708Z,4.68
2017-03-26T00:13:22.919Z,4.67
2017-03-26T00:13:27.247Z,4.67
2017-03-26T00:13:31.568Z,4.67
2017-03-26T00:13:36.002Z,4.68
2017-03-26T00:13:40.483Z,4.67
2017-03-26T00:13:44.954Z,4.67
2017-03-26T00:13:49.391Z,4.67
2017-03-26T00:13:53.835Z,4.67
2017-03-26T00:13:58.282Z,4.67
2017-03-26T00:14:02.716Z,4.68
2017-03-26T00:14:07.031Z,4.66
2017-03-26T00:14:11.349Z,4.65
2017-03-26T00:14:15.791Z,4.67
2017-03-26T00:14:20.228Z,4.66
2017-03-26T00:14:24.666Z,4.66
2017-03-26T00:14:29.097Z,4.66
2017-03-26T00:14:33.303Z,4.65
2017-03-26T00:14:37.670Z,4.65
2017-03-26T00:14:42.101Z,4.65
2017-03-26T00:14:46.531Z,4.65
2017-03-26T00:14:50.970Z,4.65
2017-03-26T00:14:55.403Z,4.65
2017-03-26T00:14:59.722Z,4.64
2017-03-26T00:15:04.214Z,4.64
2017-03-26T00:15:08.696Z,4.64
2017-03-26T00:15:13.125Z,4.64
2017-03-26T00:15:17.555Z,4.65
2017-03-26T00:15:21.755Z,4.64
2017-03-26T00:15:26.080Z,4.64
2017-03-26T00:15:30.542Z,4.64
2017-03-26T00:15:34.856Z,4.64
2017-03-26T00:15:39.288Z,4.64
2017-03-26T00:15:43.780Z,4.64
2017-03-26T00:15:48.205Z,4.64
2017-03-26T00:15:52.630Z,4.63
2017-03-26T00:15:56.942Z,4.64
2017-03-26T00:16:01.378Z,4.63
2017-03-26T00:16:05.953Z,4.63
2017-03-26T00:16:10.380Z,4.63
2017-03-26T00:16:14.811Z,4.63
2017-03-26T00:16:19.242Z,4.63
2017-03-26T00:16:23.320Z,4.62
2017-03-26T00:16:27.637Z,4.63
2017-03-26T00:16:32.061Z,4.62
2017-03-26T00:16:36.439Z,4.62
2017-03-26T00:16:40.756Z,4.62
2017-03-26T00:16:45.186Z,4.63
2017-03-26T00:16:49.676Z,4.62
2017-03-26T00:16:54.115Z,4.62
2017-03-26T00:16:58.554Z,4.62
2017-03-26T00:17:03.335Z,4.62
2017-03-26T00:17:07.647Z,4.61
2017-03-26T00:17:11.962Z,4.62
2017-03-26T00:17:16.278Z,4.62
2017-03-26T00:17:20.607Z,4.61
2017-03-26T00:17:25.057Z,4.61
2017-03-26T00:17:29.490Z,4.61
2017-03-26T00:17:33.924Z,4.61
2017-03-26T00:17:38.361Z,4.61
2017-03-26T00:17:42.803Z,4.61
2017-03-26T00:17:47.236Z,4.6
2017-03-26T00:17:51.672Z,4.62
2017-03-26T00:17:56.175Z,4.61
2017-03-26T00:18:00.515Z,4.61
2017-03-26T00:18:04.950Z,4.61
2017-03-26T00:18:09.153Z,4.61
2017-03-26T00:18:13.591Z,4.61
2017-03-26T00:18:18.022Z,4.61
2017-03-26T00:18:22.475Z,4.61
2017-03-26T00:18:26.569Z,4.61
2017-03-26T00:18:31.007Z,4.61
2017-03-26T00:18:35.318Z,4.62
2017-03-26T00:18:39.761Z,4.61
2017-03-26T00:18:44.213Z,4.61
2017-03-26T00:18:48.653Z,4.61
2017-03-26T00:18:53.093Z,4.61
2017-03-26T00:18:57.412Z,4.6
2017-03-26T00:19:01.785Z,4.61
2017-03-26T00:19:06.224Z,4.6
2017-03-26T00:19:10.538Z,4.6
2017-03-26T00:19:14.972Z,4.6
2017-03-26T00:19:19.410Z,4.61
2017-03-26T00:19:23.736Z,4.61
2017-03-26T00:19:28.050Z,4.6
2017-03-26T00:19:32.374Z,4.6
2017-03-26T00:19:36.817Z,4.6
2017-03-26T00:19:41.190Z,4.6
2017-03-26T00:19:45.618Z,4.59
2017-03-26T00:19:50.056Z,4.6
2017-03-26T00:19:54.496Z,4.6
2017-03-26T00:19:58.865Z,4.6
2017-03-26T00:20:03.314Z,4.6
2017-03-26T00:20:07.516Z,4.6
2017-03-26T00:20:11.952Z,4.61
2017-03-26T00:20:16.393Z,4.59
2017-03-26T00:20:20.824Z,4.59
2017-03-26T00:20:25.014Z,4.6
2017-03-26T00:20:29.450Z,4.59
2017-03-26T00:20:33.885Z,4.6
2017-03-26T00:20:38.312Z,4.59
2017-03-26T00:20:42.739Z,4.59
2017-03-26T00:20:47.164Z,4.6
2017-03-26T00:20:51.617Z,4.59
2017-03-26T00:20:55.936Z,4.6
2017-03-26T00:21:00.131Z,4.59
2017-03-26T00:21:04.559Z,4.6
2017-03-26T00:21:08.991Z,4.59
2017-03-26T00:21:13.419Z,4.59
2017-03-26T00:21:17.853Z,4.59
2017-03-26T00:21:22.168Z,4.59
2017-03-26T00:21:26.602Z,4.58
2017-03-26T00:21:30.922Z,4.59
2017-03-26T00:21:35.236Z,4.58
2017-03-26T00:21:39.550Z,4.59
2017-03-26T00:21:43.911Z,4.58
2017-03-26T00:21:48.342Z,4.59
2017-03-26T00:21:52.775Z,4.59
2017-03-26T00:21:57.092Z,4.59
2017-03-26T00:22:01.784Z,4.58
2017-03-26T00:22:06.222Z,4.59
2017-03-26T00:22:10.656Z,4.58
2017-03-26T00:22:15.098Z,4.58
2017-03-26T00:22:19.533Z,4.57
2017-03-26T00:22:23.972Z,4.59
2017-03-26T00:22:28.435Z,4.58
2017-03-26T00:22:32.862Z,4.58
2017-03-26T00:22:37.287Z,4.58
2017-03-26T00:22:41.722Z,4.58
2017-03-26T00:22:46.098Z,4.57
2017-03-26T00:22:50.176Z,4.59
2017-03-26T00:22:54.613Z,4.57
2017-03-26T00:22:59.056Z,4.57
2017-03-26T00:23:03.493Z,4.58
2017-03-26T00:23:07.809Z,4.58
2017-03-26T00:23:12.124Z,4.58
2017-03-26T00:23:16.565Z,4.58
2017-03-26T00:23:20.950Z,4.57
2017-03-26T00:23:25.387Z,4.57
2017-03-26T00:23:29.827Z,4.57
2017-03-26T00:23:34.261Z,4.56
2017-03-26T00:23:38.744Z,4.57
2017-03-26T00:23:43.059Z,4.57
2017-03-26T00:23:47.501Z,4.56
2017-03-26T00:23:51.933Z,4.56
2017-03-26T00:23:56.376Z,4.56
2017-03-26T00:24:00.579Z,4.57
2017-03-26T00:24:04.896Z,4.57
2017-03-26T00:24:09.212Z,4.55
2017-03-26T00:24:13.540Z,4.55
2017-03-26T00:24:18.001Z,4.56
2017-03-26T00:24:22.428Z,4.55
2017-03-26T00:24:26.872Z,4.55
2017-03-26T00:24:31.313Z,4.55
2017-03-26T00:24:35.628Z,4.55
2017-03-26T00:24:39.941Z,4.55
2017-03-26T00:24:44.380Z,4.56
2017-03-26T00:24:48.827Z,4.55
2017-03-26T00:24:53.268Z,4.56
2017-03-26T00:24:57.709Z,4.55
2017-03-26T00:25:02.146Z,4.56
2017-03-26T00:25:06.343Z,4.55
2017-03-26T00:25:10.775Z,4.55
2017-03-26T00:25:15.206Z,4.55
2017-03-26T00:25:19.516Z,4.55
2017-03-26T00:25:23.950Z,4.55
2017-03-26T00:25:28.148Z,4.55
2017-03-26T00:25:32.575Z,4.56
2017-03-26T00:25:36.880Z,4.56
2017-03-26T00:25:41.320Z,4.55
2017-03-26T00:25:45.751Z,4.55
2017-03-26T00:25:50.172Z,4.55
2017-03-26T00:25:54.612Z,4.56
2017-03-26T00:25:58.925Z,4.55
2017-03-26T00:26:03.364Z,4.55
2017-03-26T00:26:07.794Z,4.56
2017-03-26T00:26:12.116Z,4.55
2017-03-26T00:26:16.600Z,4.55
2017-03-26T00:26:21.029Z,4.54
2017-03-26T00:26:25.345Z,4.54
2017-03-26T00:26:29.420Z,4.54
2017-03-26T00:26:33.849Z,4.55
2017-03-26T00:26:38.283Z,4.55
2017-03-26T00:26:42.599Z,4.54
2017-03-26T00:26:46.968Z,4.55
2017-03-26T00:26:51.411Z,4.54
2017-03-26T00:26:55.839Z,4.55
2017-03-26T00:27:00.285Z,4.55
2017-03-26T00:27:04.908Z,4.55
2017-03-26T00:27:09.355Z,4.54
2017-03-26T00:27:13.784Z,4.55
2017-03-26T00:27:18.220Z,4.55
2017-03-26T00:27:22.533Z,4.54
2017-03-26T00:27:26.730Z,4.54
2017-03-26T00:27:31.165Z,4.55
2017-03-26T00:27:35.481Z,4.55
2017-03-26T00:27:39.921Z,4.54
2017-03-26T00:27:44.355Z,4.54
2017-03-26T00:27:48.808Z,4.54
2017-03-26T00:27:53.246Z,4.54
2017-03-26T00:27:57.681Z,4.54
2017-03-26T00:28:02.200Z,4.54
2017-03-26T00:28:06.527Z,4.54
2017-03-26T00:28:10.553Z,4.55
2017-03-26T00:28:14.987Z,4.55
2017-03-26T00:28:19.435Z,4.55
2017-03-26T00:28:23.402Z,4.55
2017-03-26T00:28:27.854Z,4.56
2017-03-26T00:28:32.291Z,4.56
2017-03-26T00:28:36.729Z,4.55
2017-03-26T00:28:41.203Z,4.56
2017-03-26T00:28:45.645Z,4.55
2017-03-26T00:28:50.080Z,4.56
2017-03-26T00:28:54.517Z,4.55
2017-03-26T00:28:58.951Z,4.54
2017-03-26T00:29:03.274Z,4.56
2017-03-26T00:29:07.586Z,4.55
2017-03-26T00:29:11.907Z,4.55
2017-03-26T00:29:16.281Z,4.55
2017-03-26T00:29:20.721Z,4.56
2017-03-26T00:29:25.049Z,4.55
2017-03-26T00:29:29.481Z,4.55
2017-03-26T00:29:33.907Z,4.55
2017-03-26T00:29:38.342Z,4.55
2017-03-26T00:29:42.658Z,4.55
2017-03-26T00:29:47.090Z,4.55
2017-03-26T00:29:51.403Z,4.55
2017-03-26T00:29:55.728Z,4.55
2017-03-26T00:30:00.054Z,4.55
2017-03-26T00:30:04.597Z,4.55
2017-03-26T00:30:08.921Z,4.56
2017-03-26T00:30:13.367Z,4.56
2017-03-26T00:30:17.802Z,4.55
2017-03-26T00:30:22.232Z,4.55
2017-03-26T00:30:26.549Z,4.55
2017-03-26T00:30:30.977Z,4.55
2017-03-26T00:30:35.294Z,4.55
2017-03-26T00:30:39.728Z,4.56
2017-03-26T00:30:44.045Z,4.57
2017-03-26T00:30:48.483Z,4.57
2017-03-26T00:30:52.696Z,4.55
2017-03-26T00:30:57.133Z,4.56
2017-03-26T00:31:01.568Z,4.56
2017-03-26T00:31:06.023Z,4.56
2017-03-26T00:31:10.465Z,4.56
2017-03-26T00:31:14.775Z,4.57
2017-03-26T00:31:19.212Z,4.57
2017-03-26T00:31:23.645Z,4.57
2017-03-26T00:31:28.073Z,4.56
2017-03-26T00:31:32.391Z,4.57
2017-03-26T00:31:36.819Z,4.56
2017-03-26T00:31:41.127Z,4.56
2017-03-26T00:31:45.560Z,4.57
2017-03-26T00:31:49.878Z,4.57
2017-03-26T00:31:54.308Z,4.56
2017-03-26T00:31:58.734Z,4.56
2017-03-26T00:32:03.354Z,4.57
2017-03-26T00:32:07.684Z,4.56
2017-03-26T00:32:11.644Z,4.57
2017-03-26T00:32:16.074Z,4.56
2017-03-26T00:32:20.396Z,4.57
2017-03-26T00:32:24.887Z,4.57
2017-03-26T00:32:29.319Z,4.57
2017-03-26T00:32:33.756Z,4.57
2017-03-26T00:32:38.079Z,4.57
2017-03-26T00:32:42.524Z,4.57
2017-03-26T00:32:46.958Z,4.57
2017-03-26T00:32:51.158Z,4.57
2017-03-26T00:32:55.605Z,4.56
2017-03-26T00:33:00.046Z,4.57
2017-03-26T00:33:04.677Z,4.57
2017-03-26T00:33:09.126Z,4.56
2017-03-26T00:33:13.572Z,4.57
2017-03-26T00:33:18.007Z,4.57
2017-03-26T00:33:22.321Z,4.57
2017-03-26T00:33:26.643Z,4.56
2017-03-26T00:33:31.078Z,4.57
2017-03-26T00:33:35.525Z,4.56
2017-03-26T00:33:39.964Z,4.57
2017-03-26T00:33:44.399Z,4.56
2017-03-26T00:33:48.845Z,4.57
2017-03-26T00:33:53.173Z,4.57
2017-03-26T00:33:57.610Z,4.57
2017-03-26T00:34:02.059Z,4.55
2017-03-26T00:34:06.378Z,4.57
2017-03-26T00:34:10.705Z,4.56
2017-03-26T00:34:15.022Z,4.56
2017-03-26T00:34:19.465Z,4.56
2017-03-26T00:34:23.918Z,4.56
2017-03-26T00:34:28.122Z,4.56
2017-03-26T00:34:32.554Z,4.56
2017-03-26T00:34:36.878Z,4.56
2017-03-26T00:34:41.365Z,4.56
2017-03-26T00:34:45.793Z,4.56
2017-03-26T00:34:50.216Z,4.56
2017-03-26T00:34:54.537Z,4.57
2017-03-26T00:34:58.987Z,4.56
2017-03-26T00:35:03.425Z,4.55
2017-03-26T00:35:07.738Z,4.55
2017-03-26T00:35:12.174Z,4.55
2017-03-26T00:35:16.621Z,4.56
2017-03-26T00:35:21.052Z,4.56
2017-03-26T00:35:25.486Z,4.56
2017-03-26T00:35:29.963Z,4.55
2017-03-26T00:35:34.395Z,4.55
2017-03-26T00:35:38.817Z,4.55
2017-03-26T00:35:43.250Z,4.55
2017-03-26T00:35:47.678Z,4.55
2017-03-26T00:35:52.107Z,4.55
2017-03-26T00:35:56.534Z,4.55
2017-03-26T00:36:00.967Z,4.54
2017-03-26T00:36:05.657Z,4.54
2017-03-26T00:36:09.848Z,4.54
2017-03-26T00:36:14.285Z,4.54
2017-03-26T00:36:18.727Z,4.54
2017-03-26T00:36:22.920Z,4.53
2017-03-26T00:36:27.225Z,4.54
2017-03-26T00:36:31.549Z,4.54
2017-03-26T00:36:35.976Z,4.54
2017-03-26T00:36:40.280Z,4.54
2017-03-26T00:36:44.712Z,4.54
2017-03-26T00:36:49.151Z,4.54
2017-03-26T00:36:53.461Z,4.53
2017-03-26T00:36:57.894Z,4.53
2017-03-26T00:37:02.340Z,4.53
2017-03-26T00:37:06.783Z,4.53
2017-03-26T00:37:11.213Z,4.53
2017-03-26T00:37:15.409Z,4.52
2017-03-26T00:37:19.844Z,4.53
2017-03-26T00:37:24.282Z,4.52
2017-03-26T00:37:28.724Z,4.53
2017-03-26T00:37:33.030Z,4.53
2017-03-26T00:37:37.468Z,4.52
2017-03-26T00:37:41.789Z,4.52
2017-03-26T00:37:46.218Z,4.53
2017-03-26T00:37:50.652Z,4.52
2017-03-26T00:37:55.096Z,4.52
2017-03-26T00:37:59.550Z,4.52
2017-03-26T00:38:03.996Z,4.52
2017-03-26T00:38:08.191Z,4.51
2017-03-26T00:38:12.628Z,4.51
2017-03-26T00:38:16.949Z,4.52
2017-03-26T00:38:21.382Z,4.51
2017-03-26T00:38:25.580Z,4.51
2017-03-26T00:38:30.024Z,4.51
2017-03-26T00:38:34.472Z,4.51
2017-03-26T00:38:38.915Z,4.51
2017-03-26T00:38:43.234Z,4.51
2017-03-26T00:38:47.677Z,4.5
2017-03-26T00:38:52.109Z,4.5
2017-03-26T00:38:56.328Z,4.51
2017-03-26T00:39:00.644Z,4.5
2017-03-26T00:39:05.177Z,4.5
2017-03-26T00:39:09.519Z,4.49
2017-03-26T00:39:13.948Z,4.5
2017-03-26T00:39:18.385Z,4.5
2017-03-26T00:39:22.714Z,4.49
2017-03-26T00:39:27.178Z,4.49
2017-03-26T00:39:31.616Z,4.49
2017-03-26T00:39:35.985Z,4.48
2017-03-26T00:39:40.415Z,4.49
2017-03-26T00:39:44.845Z,4.49
2017-03-26T00:39:49.274Z,4.48
2017-03-26T00:39:53.708Z,4.49
2017-03-26T00:39:58.033Z,4.49
2017-03-26T00:40:02.496Z,4.48
2017-03-26T00:40:06.815Z,4.48
2017-03-26T00:40:11.020Z,4.47
2017-03-26T00:40:15.454Z,4.47
2017-03-26T00:40:19.884Z,4.48
2017-03-26T00:40:24.205Z,4.47
2017-03-26T00:40:28.692Z,4.47
2017-03-26T00:40:33.122Z,4.47
2017-03-26T00:40:37.573Z,4.47
2017-03-26T00:40:42.000Z,4.47
2017-03-26T00:40:46.431Z,4.47
2017-03-26T00:40:50.861Z,4.46
2017-03-26T00:40:55.292Z,4.46
2017-03-26T00:40:59.625Z,4.46
2017-03-26T00:41:04.137Z,4.45
2017-03-26T00:41:08.460Z,4.45
2017-03-26T00:41:12.905Z,4.45
2017-03-26T00:41:17.335Z,4.45
2017-03-26T00:41:21.648Z,4.45
2017-03-26T00:41:25.960Z,4.45
2017-03-26T00:41:30.403Z,4.45
2017-03-26T00:41:34.719Z,4.45
2017-03-26T00:41:39.151Z,4.44
2017-03-26T00:41:43.589Z,4.44
2017-03-26T00:41:48.020Z,4.44
2017-03-26T00:41:52.448Z,4.43
2017-03-26T00:41:56.880Z,4.43
2017-03-26T00:42:01.388Z,4.44
2017-03-26T00:42:05.858Z,4.42
2017-03-26T00:42:09.939Z,4.42
2017-03-26T00:42:14.378Z,4.42
2017-03-26T00:42:18.818Z,4.41
2017-03-26T00:42:23.243Z,4.42
2017-03-26T00:42:27.562Z,4.41
2017-03-26T00:42:31.994Z,4.42
2017-03-26T00:42:36.374Z,4.41
2017-03-26T00:42:40.816Z,4.41
2017-03-26T00:42:45.249Z,4.41
2017-03-26T00:42:49.693Z,4.4
2017-03-26T00:42:54.135Z,4.4
2017-03-26T00:42:58.630Z,4.39
2017-03-26T00:43:03.066Z,4.4
2017-03-26T00:43:07.511Z,4.39
2017-03-26T00:43:11.944Z,4.4
2017-03-26T00:43:16.382Z,4.39
2017-03-26T00:43:20.836Z,4.39
2017-03-26T00:43:25.148Z,4.39
2017-03-26T00:43:29.471Z,4.4
2017-03-26T00:43:33.923Z,4.39
2017-03-26T00:43:38.358Z,4.38
2017-03-26T00:43:42.797Z,4.37
2017-03-26T00:43:47.307Z,4.37
2017-03-26T00:43:51.737Z,4.38
2017-03-26T00:43:56.059Z,4.38
2017-03-26T00:44:00.269Z,4.37
2017-03-26T00:44:04.914Z,4.37
2017-03-26T00:44:09.123Z,4.37
2017-03-26T00:44:13.554Z,4.37
2017-03-26T00:44:18.006Z,4.37
2017-03-26T00:44:22.452Z,4.37
2017-03-26T00:44:26.886Z,4.36
2017-03-26T00:44:31.203Z,4.35
2017-03-26T00:44:35.639Z,4.36
2017-03-26T00:44:40.118Z,4.36
2017-03-26T00:44:44.557Z,4.36
2017-03-26T00:44:48.873Z,4.36
2017-03-26T00:44:53.313Z,4.35
2017-03-26T00:44:57.754Z,4.35
2017-03-26T00:45:02.488Z,4.34
2017-03-26T00:45:06.920Z,4.36
2017-03-26T00:45:11.423Z,4.35
2017-03-26T00:45:15.849Z,4.34
2017-03-26T00:45:20.279Z,4.34
2017-03-26T00:45:24.708Z,4.34
2017-03-26T00:45:29.142Z,4.33
2017-03-26T00:45:33.568Z,4.33
2017-03-26T00:45:37.992Z,4.33
2017-03-26T00:45:42.311Z,4.33
2017-03-26T00:45:46.747Z,4.33
2017-03-26T00:45:51.055Z,4.33
2017-03-26T00:45:55.485Z,4.33
2017-03-26T00:45:59.915Z,4.33
2017-03-26T00:46:04.620Z,4.32
2017-03-26T00:46:09.051Z,4.32
2017-03-26T00:46:13.476Z,4.32
2017-03-26T00:46:17.814Z,4.32
2017-03-26T00:46:22.134Z,4.32
2017-03-26T00:46:26.452Z,4.32
2017-03-26T00:46:30.886Z,4.32
2017-03-26T00:46:35.081Z,4.32
2017-03-26T00:46:39.394Z,4.31
2017-03-26T00:46:43.834Z,4.3
2017-03-26T00:46:48.272Z,4.3
2017-03-26T00:46:52.705Z,4.31
2017-03-26T00:46:57.142Z,4.3
2017-03-26T00:47:01.584Z,4.31
2017-03-26T00:47:06.029Z,4.3
2017-03-26T00:47:10.349Z,4.29
2017-03-26T00:47:14.660Z,4.3
2017-03-26T00:47:18.978Z,4.3
2017-03-26T00:47:23.421Z,4.29
2017-03-26T00:47:27.857Z,4.29
2017-03-26T00:47:32.293Z,4.3
2017-03-26T00:47:36.501Z,4.29
2017-03-26T00:47:40.707Z,4.29
2017-03-26T00:47:45.146Z,4.29
2017-03-26T00:47:49.585Z,4.3
2017-03-26T00:47:54.020Z,4.29
2017-03-26T00:47:58.470Z,4.29
2017-03-26T00:48:02.782Z,4.29
2017-03-26T00:48:07.215Z,4.28
2017-03-26T00:48:11.583Z,4.28
2017-03-26T00:48:15.903Z,4.29
2017-03-26T00:48:20.336Z,4.29
2017-03-26T00:48:24.653Z,4.28
2017-03-26T00:48:29.157Z,4.29
2017-03-26T00:48:33.354Z,4.28
2017-03-26T00:48:37.791Z,4.28
2017-03-26T00:48:42.226Z,4.28
2017-03-26T00:48:46.561Z,4.28
2017-03-26T00:48:51.001Z,4.28
2017-03-26T00:48:55.432Z,4.28
2017-03-26T00:48:59.893Z,4.28
2017-03-26T00:49:04.328Z,4.28
2017-03-26T00:49:08.766Z,4.28
2017-03-26T00:49:13.204Z,4.27
2017-03-26T00:49:17.650Z,4.28
2017-03-26T00:49:22.087Z,4.28
2017-03-26T00:49:26.294Z,4.28
2017-03-26T00:49:30.732Z,4.27
2017-03-26T00:49:35.162Z,4.27
2017-03-26T00:49:39.478Z,4.27
2017-03-26T00:49:43.916Z,4.26
2017-03-26T00:49:48.352Z,4.26
2017-03-26T00:49:52.734Z,4.27
2017-03-26T00:49:57.059Z,4.26
2017-03-26T00:50:01.485Z,4.27
2017-03-26T00:50:05.953Z,4.27
2017-03-26T00:50:10.379Z,4.27
2017-03-26T00:50:14.692Z,4.26
2017-03-26T00:50:18.907Z,4.26
2017-03-26T00:50:23.228Z,4.26
2017-03-26T00:50:27.671Z,4.26
2017-03-26T00:50:32.101Z,4.26
2017-03-26T00:50:36.532Z,4.26
2017-03-26T00:50:40.961Z,4.26
2017-03-26T00:50:45.388Z,4.25
2017-03-26T00:50:49.816Z,4.25
2017-03-26T00:50:54.145Z,4.25
2017-03-26T00:50:58.616Z,4.25
2017-03-26T00:51:03.154Z,4.25
2017-03-26T00:51:07.472Z,4.25
2017-03-26T00:51:11.973Z,4.24
2017-03-26T00:51:16.338Z,4.25
2017-03-26T00:51:20.653Z,4.25
2017-03-26T00:51:24.970Z,4.26
2017-03-26T00:51:29.397Z,4.25
2017-03-26T00:51:33.827Z,4.25
2017-03-26T00:51:38.255Z,4.25
2017-03-26T00:51:42.684Z,4.25
2017-03-26T00:51:47.111Z,4.24
2017-03-26T00:51:51.303Z,4.24
2017-03-26T00:51:55.630Z,4.25
2017-03-26T00:52:00.062Z,4.25
2017-03-26T00:52:04.277Z,4.24
2017-03-26T00:52:08.610Z,4.24
2017-03-26T00:52:12.799Z,4.24
2017-03-26T00:52:17.111Z,4.24
2017-03-26T00:52:21.546Z,4.24
2017-03-26T00:52:25.868Z,4.24
2017-03-26T00:52:30.311Z,4.24
2017-03-26T00:52:34.624Z,4.24
2017-03-26T00:52:39.059Z,4.24
2017-03-26T00:52:43.506Z,4.23
2017-03-26T00:52:47.945Z,4.24
2017-03-26T00:52:52.377Z,4.23
2017-03-26T00:52:56.820Z,4.23
2017-03-26T00:53:01.255Z,4.24
2017-03-26T00:53:05.944Z,4.24
2017-03-26T00:53:10.259Z,4.23
2017-03-26T00:53:14.577Z,4.24
2017-03-26T00:53:18.887Z,4.23
2017-03-26T00:53:23.331Z,4.22
2017-03-26T00:53:27.649Z,4.23
2017-03-26T00:53:32.100Z,4.22
2017-03-26T00:53:36.547Z,4.22
2017-03-26T00:53:40.993Z,4.22
2017-03-26T00:53:45.481Z,4.24
2017-03-26T00:53:49.917Z,4.23
2017-03-26T00:53:54.235Z,4.23
2017-03-26T00:53:58.677Z,4.22
2017-03-26T00:54:03.312Z,4.23
2017-03-26T00:54:07.514Z,4.24
2017-03-26T00:54:11.943Z,4.22
2017-03-26T00:54:16.273Z,4.22
2017-03-26T00:54:20.780Z,4.22
2017-03-26T00:54:25.106Z,4.22
2017-03-26T00:54:29.419Z,4.22
2017-03-26T00:54:33.850Z,4.22
2017-03-26T00:54:38.294Z,4.21
2017-03-26T00:54:42.723Z,4.21
2017-03-26T00:54:47.164Z,4.21
2017-03-26T00:54:51.602Z,4.22
2017-03-26T00:54:56.044Z,4.21
2017-03-26T00:55:00.478Z,4.22
2017-03-26T00:55:04.958Z,4.22
2017-03-26T00:55:09.398Z,4.22
2017-03-26T00:55:13.827Z,4.21
2017-03-26T00:55:18.256Z,4.22
2017-03-26T00:55:22.580Z,4.22
2017-03-26T00:55:26.893Z,4.22
2017-03-26T00:55:31.320Z,4.21
2017-03-26T00:55:35.628Z,4.21
2017-03-26T00:55:40.060Z,4.21
2017-03-26T00:55:44.380Z,4.21
2017-03-26T00:55:48.821Z,4.21
2017-03-26T00:55:53.248Z,4.2
2017-03-26T00:55:57.559Z,4.2
2017-03-26T00:56:01.769Z,4.2
2017-03-26T00:56:06.067Z,4.2
2017-03-26T00:56:10.498Z,4.19
2017-03-26T00:56:14.930Z,4.19
2017-03-26T00:56:19.383Z,4.19
2017-03-26T00:56:23.805Z,4.2
2017-03-26T00:56:28.122Z,4.2
2017-03-26T00:56:32.571Z,4.2
2017-03-26T00:56:37.000Z,4.2
2017-03-26T00:56:41.436Z,4.19
2017-03-26T00:56:45.875Z,4.19
2017-03-26T00:56:50.321Z,4.19
2017-03-26T00:56:54.515Z,4.19
2017-03-26T00:56:58.949Z,4.19
2017-03-26T00:57:03.380Z,4.18
2017-03-26T00:57:07.592Z,4.18
2017-03-26T00:57:12.088Z,4.19
2017-03-26T00:57:16.405Z,4.18
2017-03-26T00:57:20.723Z,4.18
2017-03-26T00:57:25.158Z,4.18
2017-03-26T00:57:29.592Z,4.19
2017-03-26T00:57:34.022Z,4.18
2017-03-26T00:57:38.345Z,4.17
2017-03-26T00:57:42.784Z,4.17
2017-03-26T00:57:47.212Z,4.18
2017-03-26T00:57:51.537Z,4.17
2017-03-26T00:57:55.850Z,4.18
2017-03-26T00:58:00.288Z,4.17
2017-03-26T00:58:04.735Z,4.16
2017-03-26T00:58:09.067Z,4.17
2017-03-26T00:58:13.501Z,4.16
2017-03-26T00:58:17.935Z,4.17
2017-03-26T00:58:22.366Z,4.15
2017-03-26T00:58:26.859Z,4.17
2017-03-26T00:58:31.297Z,4.16
2017-03-26T00:58:35.528Z,4.16